createdAt,value
2022-08-22T00:02:58.278Z,101178.66
2022-08-22T00:03:07.476Z,101156.09
2022-08-22T00:04:00.766Z,101182.66
2022-08-22T00:09:26.798Z,101182.75
2022-08-22T00:14:40.582Z,101187.22
2022-08-22T00:20:00.510Z,101181.97
2022-08-22T00:25:40.675Z,101175.00
2022-08-22T00:30:56.029Z,101170.66
2022-08-22T00:36:21.888Z,101189.41
2022-08-22T00:42:07.054Z,101190.25
2022-08-22T00:47:51.262Z,101184.94
2022-08-22T00:53:11.175Z,101178.88
2022-08-22T00:58:53.217Z,101181.59
2022-08-22T01:04:29.452Z,101181.53
2022-08-22T01:09:48.011Z,101184.19
2022-08-22T01:15:00.468Z,101187.97
2022-08-22T01:20:37.949Z,101193.41
2022-08-22T01:26:32.261Z,101204.25
2022-08-22T01:32:05.998Z,101204.31
2022-08-22T01:37:33.881Z,101210.59
2022-08-22T01:43:12.090Z,101203.47
2022-08-22T01:48:23.310Z,101200.84
2022-08-22T01:53:41.898Z,101208.03
2022-08-22T01:59:02.256Z,101198.31
2022-08-22T02:04:12.087Z,101193.00
2022-08-22T02:09:41.695Z,101199.28
2022-08-22T02:14:53.834Z,101196.59
2022-08-22T02:20:17.531Z,101201.06
2022-08-22T02:25:33.536Z,101200.25
2022-08-22T02:30:52.002Z,101202.97
2022-08-22T02:36:03.697Z,101200.41
2022-08-22T02:41:18.698Z,101198.63
2022-08-22T02:46:41.354Z,101193.28
2022-08-22T02:51:59.909Z,101198.63
2022-08-22T02:57:14.690Z,101192.50
2022-08-22T03:02:35.223Z,101203.22
2022-08-22T03:08:03.898Z,101199.63
2022-08-22T03:13:22.298Z,101200.50
2022-08-22T03:18:47.383Z,101200.50
2022-08-22T03:23:58.199Z,101187.19
2022-08-22T03:29:11.859Z,101181.94
2022-08-22T03:34:22.132Z,101191.72
2022-08-22T03:40:09.617Z,101189.06
2022-08-22T03:45:50.663Z,101187.25
2022-08-22T03:51:32.783Z,101195.25
2022-08-22T03:57:26.253Z,101200.63
2022-08-22T04:03:08.988Z,101199.69
2022-08-22T04:09:05.043Z,101219.19
2022-08-22T04:14:53.958Z,101215.63
2022-08-22T04:20:30.949Z,101215.63
2022-08-22T04:25:39.122Z,101222.63
2022-08-22T04:30:46.270Z,101228.75
2022-08-22T04:35:59.650Z,101229.44
2022-08-22T04:41:08.713Z,101231.03
2022-08-22T04:46:18.823Z,101241.31
2022-08-22T04:51:27.780Z,101239.19
2022-08-22T04:56:39.190Z,101233.47
2022-08-22T05:01:44.823Z,101250.00
2022-08-22T05:06:52.711Z,101253.22
2022-08-22T05:12:11.427Z,101250.41
2022-08-22T05:17:20.230Z,101266.06
2022-08-22T05:22:27.558Z,101261.44
2022-08-22T05:27:36.688Z,101264.69
2022-08-22T05:32:49.411Z,101259.03
2022-08-22T05:37:56.981Z,101269.63
2022-08-22T05:43:01.691Z,101272.84
2022-08-22T05:48:14.019Z,101278.44
2022-08-22T05:53:26.086Z,101283.69
2022-08-22T05:58:46.375Z,101285.97
2022-08-22T06:03:58.785Z,101296.59
2022-08-22T06:09:04.593Z,101290.34
2022-08-22T06:14:18.319Z,101295.91
2022-08-22T06:19:27.025Z,101293.81
2022-08-22T06:24:31.063Z,101296.13
2022-08-22T06:29:37.817Z,101307.09
2022-08-22T06:34:43.206Z,101307.84
2022-08-22T06:39:49.022Z,101304.72
2022-08-22T06:44:56.979Z,101319.91
2022-08-22T06:50:05.468Z,101303.66
2022-08-22T06:55:09.908Z,101316.22
2022-08-22T07:00:16.044Z,101313.13
2022-08-22T07:05:20.977Z,101316.53
2022-08-22T07:10:24.982Z,101315.03
2022-08-22T07:15:34.653Z,101332.69
2022-08-22T07:20:39.382Z,101327.59
2022-08-22T07:25:52.533Z,101334.69
2022-08-22T07:30:59.282Z,101328.34
2022-08-22T07:36:16.304Z,101333.28
2022-08-22T07:41:22.776Z,101325.81
2022-08-22T07:46:30.589Z,101337.06
2022-08-22T07:51:35.881Z,101335.09
2022-08-22T07:56:43.270Z,101337.56
2022-08-22T08:01:50.192Z,101336.47
2022-08-22T08:06:55.317Z,101333.63
2022-08-22T08:11:59.103Z,101326.03
2022-08-22T08:17:04.738Z,101334.34
2022-08-22T08:22:07.773Z,101330.53
2022-08-22T08:27:15.383Z,101329.09
2022-08-22T08:32:19.140Z,101333.28
2022-08-22T08:37:27.626Z,101324.59
2022-08-22T08:42:48.994Z,101327.88
2022-08-22T08:48:09.590Z,101330.13
2022-08-22T08:53:36.440Z,101317.09
2022-08-22T08:58:44.384Z,101314.25
2022-08-22T09:04:24.999Z,101322.25
2022-08-22T09:09:42.867Z,101322.00
2022-08-22T09:15:14.294Z,101325.28
2022-08-22T09:20:28.664Z,101324.31
2022-08-22T09:25:39.201Z,101320.00
2022-08-22T09:30:57.874Z,101322.50
2022-08-22T09:36:06.061Z,101328.41
2022-08-22T09:41:26.965Z,101324.78
2022-08-22T09:46:36.989Z,101315.78
2022-08-22T09:51:50.288Z,101322.72
2022-08-22T09:57:08.297Z,101318.16
2022-08-22T10:02:23.638Z,101309.81
2022-08-22T10:07:59.173Z,101319.44
2022-08-22T10:13:10.692Z,101323.44
2022-08-22T10:18:23.966Z,101324.78
2022-08-22T10:23:37.632Z,101327.13
2022-08-22T10:28:48.647Z,101319.31
2022-08-22T10:34:00.899Z,101307.00
2022-08-22T10:39:11.611Z,101314.28
2022-08-22T10:44:19.119Z,101316.19
2022-08-22T10:49:28.370Z,101306.31
2022-08-22T10:54:41.394Z,101310.63
2022-08-22T10:59:49.140Z,101302.75
2022-08-22T11:05:27.638Z,101305.97
2022-08-22T11:10:59.842Z,101307.13
2022-08-22T11:16:13.258Z,101310.72
2022-08-22T11:21:26.288Z,101299.19
2022-08-22T11:26:46.659Z,101300.59
2022-08-22T11:32:04.307Z,101289.38
2022-08-22T11:37:42.197Z,101298.09
2022-08-22T11:42:53.678Z,101302.88
2022-08-22T11:48:01.585Z,101301.09
2022-08-22T11:53:19.791Z,101288.97
2022-08-22T11:58:40.885Z,101286.88
2022-08-22T12:03:58.453Z,101288.22
2022-08-22T12:09:37.997Z,101273.22
2022-08-22T12:14:46.825Z,101277.16
2022-08-22T12:20:16.612Z,101282.53
2022-08-22T12:25:36.278Z,101274.38
2022-08-22T12:30:59.913Z,101273.38
2022-08-22T12:36:24.489Z,101269.84
2022-08-22T12:41:48.230Z,101262.91
2022-08-22T12:47:05.903Z,101259.69
2022-08-22T12:52:24.256Z,101245.38
2022-08-22T12:57:39.093Z,101254.28
2022-08-22T13:02:43.432Z,101246.16
2022-08-22T13:07:52.530Z,101250.28
2022-08-22T13:12:59.233Z,101242.56
2022-08-22T13:18:28.774Z,101239.41
2022-08-22T13:23:34.287Z,101240.56
2022-08-22T13:28:44.807Z,101247.25
2022-08-22T13:33:52.640Z,101244.63
2022-08-22T13:39:00.907Z,101244.75
2022-08-22T13:44:20.590Z,101241.91
2022-08-22T13:49:33.451Z,101244.53
2022-08-22T13:54:50.423Z,101237.03
2022-08-22T14:00:06.186Z,101233.00
2022-08-22T14:05:13.429Z,101231.25
2022-08-22T14:10:23.609Z,101237.25
2022-08-22T14:15:32.186Z,101239.19
2022-08-22T14:20:47.516Z,101233.75
2022-08-22T14:25:50.128Z,101228.84
2022-08-22T14:30:59.365Z,101224.66
2022-08-22T14:36:13.351Z,101231.09
2022-08-22T14:41:26.383Z,101221.44
2022-08-22T14:46:35.530Z,101230.09
2022-08-22T14:51:48.800Z,101235.06
2022-08-22T14:56:54.821Z,101228.09
2022-08-22T15:02:04.863Z,101229.50
2022-08-22T15:07:10.549Z,101222.69
2022-08-22T15:12:24.667Z,101230.50
2022-08-22T15:17:38.208Z,101225.78
2022-08-22T15:22:45.463Z,101238.00
2022-08-22T15:28:05.182Z,101227.88
2022-08-22T15:33:11.952Z,101229.53
2022-08-22T15:38:31.480Z,101229.56
2022-08-22T15:43:36.209Z,101232.50
2022-08-22T15:48:39.430Z,101233.81
2022-08-22T15:54:16.298Z,101226.38
2022-08-22T15:59:47.703Z,101228.47
2022-08-22T16:05:18.837Z,101228.97
2022-08-22T16:10:35.122Z,101227.19
2022-08-22T16:15:59.109Z,101223.72
2022-08-22T16:21:02.495Z,101227.50
2022-08-22T16:26:14.357Z,101225.72
2022-08-22T16:31:23.502Z,101228.22
2022-08-22T16:36:42.627Z,101234.50
2022-08-22T16:41:47.182Z,101232.22
2022-08-22T16:46:52.848Z,101234.69
2022-08-22T16:52:34.378Z,101229.00
2022-08-22T16:58:05.279Z,101218.59
2022-08-22T17:03:20.052Z,101220.22
2022-08-22T17:08:33.881Z,101222.31
2022-08-22T17:13:56.076Z,101230.56
2022-08-22T17:19:17.706Z,101236.75
2022-08-22T17:24:31.718Z,101236.28
2022-08-22T17:29:50.019Z,101248.06
2022-08-22T17:34:58.977Z,101253.41
2022-08-22T17:40:26.446Z,101253.00
2022-08-22T17:45:44.810Z,101257.91
2022-08-22T17:50:53.215Z,101260.19
2022-08-22T17:56:03.363Z,101262.38
2022-08-22T18:01:11.723Z,101275.44
2022-08-22T18:06:20.402Z,101277.72
2022-08-22T18:11:29.369Z,101282.00
2022-08-22T18:16:35.379Z,101275.94
2022-08-22T18:21:41.852Z,101271.66
2022-08-22T18:26:50.968Z,101270.31
2022-08-22T18:32:06.380Z,101283.06
2022-08-22T18:37:18.979Z,101291.50
2022-08-22T18:42:28.681Z,101302.44
2022-08-22T18:47:34.307Z,101304.16
2022-08-22T18:52:39.602Z,101311.31
2022-08-22T18:57:58.994Z,101301.09
2022-08-22T19:03:30.230Z,101301.97
2022-08-22T19:08:49.315Z,101304.25
2022-08-22T19:14:12.769Z,101313.34
2022-08-22T19:19:21.090Z,101314.78
2022-08-22T19:24:56.072Z,101316.00
2022-08-22T19:30:01.379Z,101320.94
2022-08-22T19:35:18.553Z,101315.69
2022-08-22T19:40:53.570Z,101309.47
2022-08-22T19:45:56.609Z,101318.72
2022-08-22T19:51:12.672Z,101321.41
2022-08-22T19:56:28.241Z,101319.75
2022-08-22T20:01:45.934Z,101322.03
2022-08-22T20:07:00.500Z,101322.44
2022-08-22T20:12:15.540Z,101324.56
2022-08-22T20:17:41.595Z,101329.00
2022-08-22T20:22:49.803Z,101315.47
2022-08-22T20:28:02.674Z,101325.38
2022-08-22T20:33:09.209Z,101320.91
2022-08-22T20:38:16.550Z,101329.44
2022-08-22T20:43:24.474Z,101330.84
2022-08-22T20:48:36.670Z,101313.13
2022-08-22T20:53:40.167Z,101324.47
2022-08-22T20:58:42.227Z,101323.88
2022-08-22T21:03:47.509Z,101330.16
2022-08-22T21:08:50.797Z,101341.59
2022-08-22T21:13:53.538Z,101354.38
2022-08-22T21:18:56.104Z,101350.72
2022-08-22T21:24:03.292Z,101339.97
2022-08-22T21:29:18.339Z,101342.09
2022-08-22T21:34:23.426Z,101349.25
2022-08-22T21:39:30.643Z,101356.13
2022-08-22T21:44:35.949Z,101352.63
2022-08-22T21:49:59.126Z,101344.00
2022-08-22T21:55:26.241Z,101347.56
2022-08-22T22:00:48.933Z,101343.31
2022-08-22T22:05:53.114Z,101340.59
2022-08-22T22:10:59.409Z,101345.91
2022-08-22T22:16:01.429Z,101344.16
2022-08-22T22:21:04.231Z,101337.75
2022-08-22T22:26:07.296Z,101335.16
2022-08-22T22:31:10.281Z,101330.00
2022-08-22T22:36:16.323Z,101335.09
2022-08-22T22:41:20.938Z,101333.34
2022-08-22T22:46:24.200Z,101329.34
2022-08-22T22:51:26.312Z,101329.78
2022-08-22T22:56:29.784Z,101323.34
2022-08-22T23:01:31.986Z,101328.81
2022-08-22T23:06:34.863Z,101324.50
2022-08-22T23:11:38.722Z,101331.03
2022-08-22T23:16:41.025Z,101339.56
2022-08-22T23:21:44.537Z,101343.72
2022-08-22T23:26:47.992Z,101342.31
2022-08-22T23:31:52.159Z,101332.78
2022-08-22T23:36:57.964Z,101338.16
2022-08-22T23:42:02.026Z,101339.88
2022-08-22T23:47:05.557Z,101342.97
2022-08-22T23:52:09.100Z,101342.41
2022-08-22T23:57:12.780Z,101339.94
